Time;durP1;ratioP1;P1;durP2;ratioP2;P2;SDS_P1;SDS_P2;PMS_P1;PMS_P2;Temp;Humidity;BMP_temperature;BMP_pressure;BME280_temperature;BME280_humidity;BME280_pressure;Samples;Min_cycle;Max_cycle;Signal;HPM_P1;HPM_P2
2021/06/04 00:02:08;;;;;;;3.40;2.40;;;21.00;69.20;;;;;;4956908;28;20059;-75
2021/06/04 00:04:34;;;;;;;2.97;2.10;;;21.00;69.80;;;;;;4958190;28;20146;-75
2021/06/04 00:07:00;;;;;;;2.75;2.35;;;21.00;70.50;;;;;;4968146;28;20045;-75
2021/06/04 00:09:26;;;;;;;3.22;2.20;;;21.00;69.70;;;;;;4953668;28;20043;-76
2021/06/04 00:11:55;;;;;;;5.00;2.65;;;21.00;70.60;;;;;;4957715;28;20101;-76
2021/06/04 00:14:29;;;;;;;3.65;1.90;;;21.00;70.10;;;;;;4956859;28;20102;-76
2021/06/04 00:16:56;;;;;;;2.75;1.85;;;21.00;70.50;;;;;;4952003;28;20426;-76
2021/06/04 00:19:25;;;;;;;3.35;2.17;;;21.00;69.50;;;;;;4951373;28;20134;-76
2021/06/04 00:22:15;;;;;;;2.80;2.30;;;21.00;69.70;;;;;;4955496;28;20046;-76
2021/06/04 00:24:42;;;;;;;3.97;2.30;;;21.00;70.20;;;;;;4954948;28;20128;-77
2021/06/04 00:27:10;;;;;;;3.47;2.13;;;20.90;69.00;;;;;;4964817;28;20043;-76
2021/06/04 00:29:35;;;;;;;3.58;1.95;;;20.90;70.30;;;;;;4957040;28;20043;-77
2021/06/04 00:32:02;;;;;;;2.38;2.17;;;21.00;69.80;;;;;;4971712;28;20138;-76
2021/06/04 00:34:27;;;;;;;5.05;2.35;;;20.90;70.00;;;;;;4956951;28;20105;-77
2021/06/04 00:36:54;;;;;;;3.55;2.53;;;20.90;69.80;;;;;;4956604;29;20043;-76
2021/06/04 00:39:23;;;;;;;2.95;2.10;;;20.90;69.70;;;;;;4953690;28;20074;-76
2021/06/04 00:41:57;;;;;;;4.28;2.53;;;20.80;70.30;;;;;;4954577;28;20395;-77
2021/06/04 00:44:24;;;;;;;3.25;2.38;;;20.80;70.00;;;;;;4955601;28;20042;-76
2021/06/04 00:46:50;;;;;;;3.53;2.10;;;20.80;70.00;;;;;;4954560;28;20154;-76
2021/06/04 00:49:17;;;;;;;5.30;2.50;;;20.80;70.00;;;;;;4952083;28;20042;-77
2021/06/04 00:52:01;;;;;;;2.17;1.90;;;20.70;70.60;;;;;;4954865;28;20035;-77
2021/06/04 00:54:28;;;;;;;3.38;2.10;;;20.70;70.70;;;;;;4970643;28;20043;-76
2021/06/04 00:56:54;;;;;;;2.90;2.10;;;20.70;70.80;;;;;;4967974;28;20051;-77
2021/06/04 00:59:27;;;;;;;3.33;2.28;;;20.70;69.90;;;;;;4956533;29;20502;-76
2021/06/04 01:01:54;;;;;;;4.80;2.13;;;20.60;69.90;;;;;;4955320;28;20130;-75
2021/06/04 01:04:24;;;;;;;3.60;2.15;;;20.60;70.50;;;;;;4954205;28;20049;-75
2021/06/04 01:07:03;;;;;;;2.42;2.08;;;20.60;71.20;;;;;;4952589;28;20034;-75
2021/06/04 01:10:01;;;;;;;2.85;1.77;;;20.60;70.00;;;;;;4953501;28;20126;-75
2021/06/04 01:13:03;;;;;;;2.97;2.60;;;20.60;70.60;;;;;;4954861;29;20090;-75
2021/06/04 01:15:52;;;;;;;3.83;2.22;;;20.50;70.50;;;;;;4938484;28;20039;-75
2021/06/04 01:18:47;;;;;;;3.40;2.60;;;20.60;71.50;;;;;;4951807;28;20118;-76
2021/06/04 01:21:50;;;;;;;3.28;1.83;;;20.50;70.70;;;;;;4950258;28;20303;-76
2021/06/04 01:24:41;;;;;;;4.10;2.00;;;20.50;71.20;;;;;;4907286;29;20047;-76
2021/06/04 01:27:15;;;;;;;2.95;2.28;;;20.50;70.90;;;;;;4969681;28;20122;-76
2021/06/04 01:29:45;;;;;;;11.82;2.50;;;20.50;70.80;;;;;;4956179;28;20082;-75
2021/06/04 01:32:17;;;;;;;2.95;2.63;;;20.50;70.80;;;;;;4955983;28;20062;-76
2021/06/04 01:34:47;;;;;;;2.88;2.35;;;20.60;71.40;;;;;;4966729;28;20395;-76
2021/06/04 01:37:20;;;;;;;3.58;2.22;;;20.50;71.60;;;;;;4952215;28;20162;-76
2021/06/04 01:39:49;;;;;;;3.53;2.40;;;20.50;71.80;;;;;;4955125;28;20139;-77
2021/06/04 01:42:19;;;;;;;2.78;2.25;;;20.60;71.60;;;;;;4954496;28;20292;-76
2021/06/04 01:44:56;;;;;;;3.65;2.65;;;20.50;71.50;;;;;;4956538;28;20035;-76
2021/06/04 01:47:41;;;;;;;3.53;2.30;;;20.50;72.10;;;;;;4966469;28;20051;-76
2021/06/04 01:50:32;;;;;;;3.33;2.20;;;20.50;72.20;;;;;;4951201;28;20043;-76
2021/06/04 01:53:03;;;;;;;5.60;2.08;;;20.50;71.70;;;;;;4954639;28;20715;-76
2021/06/04 01:55:35;;;;;;;5.88;2.47;;;20.50;71.20;;;;;;4971181;28;20055;-75
2021/06/04 01:58:06;;;;;;;4.05;2.38;;;20.50;72.50;;;;;;4958239;28;20043;-75
2021/06/04 02:00:46;;;;;;;3.40;2.00;;;20.40;71.90;;;;;;4959378;28;20054;-75
2021/06/04 02:03:18;;;;;;;3.47;2.08;;;20.40;71.70;;;;;;4956446;28;20066;-75
2021/06/04 02:05:45;;;;;;;2.30;2.03;;;20.40;71.80;;;;;;4957466;28;20047;-75
2021/06/04 02:08:15;;;;;;;5.53;2.17;;;20.40;71.50;;;;;;4958463;28;20039;-76
2021/06/04 02:10:46;;;;;;;2.58;2.38;;;20.40;72.50;;;;;;4958090;28;20043;-76
2021/06/04 02:13:12;;;;;;;5.32;2.10;;;20.40;72.10;;;;;;4957421;29;20069;-76
2021/06/04 02:15:42;;;;;;;3.85;2.30;;;20.40;72.30;;;;;;4957802;28;20491;-76
2021/06/04 02:18:32;;;;;;;4.20;2.53;;;20.40;72.40;;;;;;4956139;28;20038;-76
2021/06/04 02:21:05;;;;;;;2.55;2.10;;;20.40;72.40;;;;;;4958172;28;20046;-76
2021/06/04 02:23:52;;;;;;;3.15;2.10;;;20.40;73.60;;;;;;4973662;28;20119;-76
2021/06/04 02:26:31;;;;;;;6.03;2.13;;;20.40;72.20;;;;;;4956196;28;20035;-76
2021/06/04 02:29:21;;;;;;;5.05;2.45;;;20.30;73.20;;;;;;4958599;29;20478;-76
2021/06/04 02:31:56;;;;;;;2.95;2.22;;;20.30;72.90;;;;;;4958334;28;20055;-76
2021/06/04 02:34:30;;;;;;;2.15;1.83;;;20.30;72.70;;;;;;4956635;28;20045;-76
2021/06/04 02:37:15;;;;;;;4.45;1.88;;;20.30;72.90;;;;;;4953966;28;20051;-77
2021/06/04 02:39:48;;;;;;;5.38;2.00;;;20.30;72.80;;;;;;4954734;28;20039;-75
2021/06/04 02:42:24;;;;;;;2.60;2.28;;;20.30;73.00;;;;;;4955427;28;20367;-75
2021/06/04 02:45:21;;;;;;;3.90;2.78;;;20.30;73.00;;;;;;4951241;28;20070;-75
2021/06/04 02:47:51;;;;;;;3.05;2.15;;;20.20;73.10;;;;;;4951043;28;20130;-77
2021/06/04 02:50:19;;;;;;;3.97;2.78;;;20.20;74.30;;;;;;4953031;28;20042;-75
2021/06/04 02:52:46;;;;;;;3.15;2.70;;;20.20;73.60;;;;;;4955076;28;20038;-75
2021/06/04 02:55:18;;;;;;;2.75;1.80;;;20.20;73.50;;;;;;4957767;28;20403;-76
2021/06/04 02:57:43;;;;;;;4.18;2.33;;;20.20;73.60;;;;;;4971893;28;20375;-77
2021/06/04 03:00:24;;;;;;;3.83;2.58;;;20.20;73.70;;;;;;4958042;29;20057;-78
2021/06/04 03:02:49;;;;;;;3.30;2.17;;;20.20;74.10;;;;;;4952410;29;20423;-77
2021/06/04 03:05:21;;;;;;;3.60;2.78;;;20.20;73.40;;;;;;4957254;29;20043;-76
2021/06/04 03:07:47;;;;;;;3.33;2.40;;;20.20;73.80;;;;;;4953633;28;20035;-76
2021/06/04 03:10:21;;;;;;;6.03;2.50;;;20.20;74.00;;;;;;4954236;28;20122;-76
2021/06/04 03:12:48;;;;;;;2.70;2.40;;;20.20;74.20;;;;;;4953481;28;20087;-77
2021/06/04 03:15:26;;;;;;;3.75;2.00;;;20.20;75.00;;;;;;4954939;28;20101;-76
2021/06/04 03:17:52;;;;;;;3.80;2.28;;;20.20;74.40;;;;;;4954901;28;20083;-77
2021/06/04 03:20:25;;;;;;;5.45;2.70;;;20.20;74.10;;;;;;4954166;28;20051;-76
2021/06/04 03:22:51;;;;;;;4.80;2.30;;;20.20;74.20;;;;;;4953906;28;20109;-76
2021/06/04 03:25:30;;;;;;;3.35;2.40;;;20.20;74.50;;;;;;4955899;28;20031;-76
2021/06/04 03:27:55;;;;;;;5.32;2.58;;;20.20;75.20;;;;;;4959906;28;20050;-76
2021/06/04 03:30:27;;;;;;;3.20;2.20;;;20.20;75.00;;;;;;4958197;29;20125;-76
2021/06/04 03:32:53;;;;;;;7.38;2.38;;;20.20;74.70;;;;;;4957988;28;20051;-76
2021/06/04 03:35:19;;;;;;;4.00;2.65;;;20.10;74.70;;;;;;4953374;28;20065;-76
2021/06/04 03:37:45;;;;;;;3.58;2.50;;;20.10;74.50;;;;;;4957881;28;20039;-76
2021/06/04 03:40:14;;;;;;;3.08;2.78;;;20.10;74.90;;;;;;4954190;29;20054;-77
2021/06/04 03:42:42;;;;;;;3.38;2.78;;;20.10;75.40;;;;;;4953063;28;20481;-76
2021/06/04 03:45:11;;;;;;;3.67;2.47;;;20.10;75.30;;;;;;4955309;28;20066;-76
2021/06/04 03:47:36;;;;;;;6.28;2.45;;;20.20;75.10;;;;;;4952401;28;20121;-76
2021/06/04 03:50:05;;;;;;;4.22;2.85;;;20.10;75.60;;;;;;4953538;28;20351;-76
2021/06/04 03:52:30;;;;;;;5.68;3.13;;;20.20;75.60;;;;;;4952587;28;20081;-76
2021/06/04 03:54:58;;;;;;;3.67;2.47;;;20.20;75.90;;;;;;4953384;28;20395;-76
2021/06/04 03:57:28;;;;;;;3.50;2.35;;;20.20;75.60;;;;;;4955479;28;20043;-76
2021/06/04 03:59:54;;;;;;;5.57;2.72;;;20.20;74.90;;;;;;4956975;29;20050;-76
2021/06/04 04:02:23;;;;;;;2.88;2.58;;;20.10;74.90;;;;;;4957090;28;20051;-76
2021/06/04 04:04:55;;;;;;;4.82;3.22;;;20.10;74.70;;;;;;4951707;28;20050;-76
2021/06/04 04:07:21;;;;;;;3.28;2.58;;;20.10;75.20;;;;;;4951326;28;20035;-77
2021/06/04 04:09:46;;;;;;;3.25;2.72;;;20.10;74.60;;;;;;4954540;28;20123;-77
2021/06/04 04:12:12;;;;;;;3.47;1.98;;;20.10;75.00;;;;;;4952397;28;20421;-77
2021/06/04 04:14:38;;;;;;;4.03;2.70;;;20.10;75.20;;;;;;4951305;28;20054;-77
2021/06/04 04:17:04;;;;;;;4.63;2.58;;;20.10;75.40;;;;;;4953496;28;20043;-77
2021/06/04 04:19:30;;;;;;;4.93;2.25;;;20.10;75.30;;;;;;4952632;28;20089;-77
2021/06/04 04:21:56;;;;;;;4.35;2.30;;;20.10;75.80;;;;;;4951174;28;20194;-77
2021/06/04 04:24:27;;;;;;;5.25;2.50;;;20.10;75.90;;;;;;4966584;28;20113;-77
2021/06/04 04:26:53;;;;;;;4.57;2.72;;;20.10;76.00;;;;;;4947631;28;20420;-77
2021/06/04 04:29:19;;;;;;;6.10;2.30;;;20.10;75.80;;;;;;4957343;28;20054;-76
2021/06/04 04:31:50;;;;;;;3.40;2.40;;;20.20;75.40;;;;;;4954814;28;20179;-75
2021/06/04 04:34:16;;;;;;;3.60;2.67;;;20.20;76.10;;;;;;4950786;28;20070;-74
2021/06/04 04:36:45;;;;;;;3.95;2.65;;;20.10;75.80;;;;;;4953094;28;20085;-76
2021/06/04 04:39:23;;;;;;;5.25;2.50;;;20.10;75.80;;;;;;4949340;28;20051;-76
2021/06/04 04:41:50;;;;;;;4.88;2.78;;;20.10;76.30;;;;;;4948771;28;20105;-77
2021/06/04 04:44:17;;;;;;;5.25;2.72;;;20.10;76.80;;;;;;4951100;28;20107;-76
2021/06/04 04:46:43;;;;;;;4.75;3.20;;;20.10;76.70;;;;;;4950354;28;20118;-76
2021/06/04 04:49:08;;;;;;;4.80;3.28;;;20.10;76.70;;;;;;4953823;28;20125;-76
2021/06/04 04:51:36;;;;;;;2.92;2.08;;;20.10;76.30;;;;;;4951404;28;20124;-76
2021/06/04 04:54:03;;;;;;;6.93;2.63;;;20.10;76.70;;;;;;4966611;28;20058;-76
2021/06/04 04:56:29;;;;;;;7.90;2.17;;;20.10;76.30;;;;;;4949776;29;20050;-77
2021/06/04 04:58:55;;;;;;;2.50;2.30;;;20.10;75.90;;;;;;4967396;28;20051;-77
2021/06/04 05:01:21;;;;;;;2.00;1.80;;;20.20;76.60;;;;;;4952706;29;20067;-77
2021/06/04 05:03:46;;;;;;;3.95;2.35;;;20.10;76.60;;;;;;4950471;28;20351;-77
2021/06/04 05:06:12;;;;;;;3.38;2.20;;;20.20;76.40;;;;;;4951494;28;20126;-76
2021/06/04 05:08:38;;;;;;;2.97;2.63;;;20.20;76.50;;;;;;4953495;28;20035;-75
2021/06/04 05:11:06;;;;;;;3.42;2.60;;;20.20;75.90;;;;;;4952698;28;20702;-77
2021/06/04 05:13:33;;;;;;;5.70;2.50;;;20.30;76.00;;;;;;4951895;28;20042;-77
2021/06/04 05:16:03;;;;;;;4.68;2.55;;;20.20;76.30;;;;;;4969047;28;20398;-77
2021/06/04 05:18:29;;;;;;;3.53;2.50;;;20.30;76.00;;;;;;4953768;28;20342;-77
2021/06/04 05:20:54;;;;;;;4.10;2.67;;;20.30;75.20;;;;;;4952497;28;20130;-77
2021/06/04 05:23:20;;;;;;;3.53;2.60;;;20.30;76.30;;;;;;4956491;28;20039;-77
2021/06/04 05:25:49;;;;;;;3.60;2.45;;;20.40;76.30;;;;;;4960050;29;20346;-76
2021/06/04 05:28:19;;;;;;;6.03;2.83;;;20.40;76.60;;;;;;4956836;28;20122;-76
2021/06/04 05:30:47;;;;;;;4.03;2.50;;;20.40;76.50;;;;;;4955497;28;20122;-78
2021/06/04 05:33:16;;;;;;;3.80;2.17;;;20.50;77.10;;;;;;4957819;28;20054;-76
2021/06/04 05:35:42;;;;;;;5.43;2.65;;;20.50;76.80;;;;;;4959386;28;20047;-76
2021/06/04 05:38:09;;;;;;;3.15;2.42;;;20.60;77.10;;;;;;4957866;28;20042;-75
2021/06/04 05:40:42;;;;;;;4.43;2.55;;;20.60;76.50;;;;;;4957543;28;20079;-76
2021/06/04 05:43:10;;;;;;;3.33;2.70;;;20.70;76.50;;;;;;4956827;28;20436;-76
2021/06/04 05:45:39;;;;;;;3.75;2.30;;;20.70;76.40;;;;;;4958350;28;20047;-76
2021/06/04 05:48:05;;;;;;;4.95;2.78;;;20.70;77.10;;;;;;4958422;28;20063;-77
2021/06/04 05:50:36;;;;;;;6.85;3.05;;;20.70;77.10;;;;;;4957580;28;20054;-76
2021/06/04 05:53:03;;;;;;;6.80;2.88;;;20.80;77.20;;;;;;4958669;28;20047;-76
2021/06/04 05:55:30;;;;;;;6.82;2.63;;;20.80;77.20;;;;;;4958232;28;20405;-76
2021/06/04 05:57:57;;;;;;;5.03;2.50;;;20.80;77.70;;;;;;4956593;28;20071;-76
2021/06/04 06:00:32;;;;;;;6.30;3.03;;;20.80;77.60;;;;;;4958196;28;20645;-76
2021/06/04 06:02:58;;;;;;;4.38;2.72;;;20.90;76.90;;;;;;4955177;29;20090;-76
2021/06/04 06:05:24;;;;;;;4.50;2.85;;;20.90;76.50;;;;;;4958088;29;20102;-76
2021/06/04 06:07:50;;;;;;;7.15;3.30;;;20.90;76.80;;;;;;4958757;28;20042;-77
2021/06/04 06:10:16;;;;;;;8.13;3.05;;;20.90;77.50;;;;;;4957323;29;20413;-77
2021/06/04 06:12:42;;;;;;;4.40;2.95;;;20.90;77.40;;;;;;4972878;28;20047;-75
2021/06/04 06:15:09;;;;;;;7.30;2.58;;;20.90;77.60;;;;;;4957008;29;20315;-77
2021/06/04 06:17:35;;;;;;;3.83;2.70;;;20.90;77.40;;;;;;4957666;28;20047;-76
2021/06/04 06:20:01;;;;;;;3.80;2.60;;;20.90;77.50;;;;;;4971901;28;20443;-76
2021/06/04 06:22:26;;;;;;;3.33;2.70;;;20.90;76.60;;;;;;4972545;28;20039;-76
2021/06/04 06:24:52;;;;;;;8.90;3.30;;;20.90;76.40;;;;;;4951182;28;20039;-76
2021/06/04 06:27:18;;;;;;;9.13;3.65;;;21.00;76.20;;;;;;4956794;29;20031;-77
2021/06/04 06:29:44;;;;;;;8.88;3.33;;;21.00;75.70;;;;;;4956061;29;20046;-77
2021/06/04 06:32:12;;;;;;;5.43;2.95;;;21.00;75.50;;;;;;4955605;28;20374;-77
2021/06/04 06:34:38;;;;;;;5.25;2.47;;;21.10;74.90;;;;;;4951573;28;20054;-76
2021/06/04 06:37:03;;;;;;;9.60;2.55;;;21.10;74.60;;;;;;4939054;29;20043;-77
2021/06/04 06:39:32;;;;;;;14.77;3.42;;;21.10;74.60;;;;;;4944502;28;20138;-76
2021/06/04 06:42:00;;;;;;;9.50;3.35;;;21.10;74.20;;;;;;4942546;28;20407;-76
2021/06/04 06:44:26;;;;;;;5.65;2.22;;;21.20;73.90;;;;;;4956759;29;20055;-76
2021/06/04 06:46:53;;;;;;;5.30;2.67;;;21.20;74.30;;;;;;4956610;29;20066;-75
2021/06/04 06:49:19;;;;;;;9.43;2.55;;;21.30;74.30;;;;;;4957004;29;20039;-77
2021/06/04 06:51:45;;;;;;;5.40;2.30;;;21.30;74.60;;;;;;4942790;28;20047;-76
2021/06/04 06:54:15;;;;;;;8.25;2.10;;;21.40;73.80;;;;;;4950420;29;20057;-76
2021/06/04 06:56:41;;;;;;;2.95;2.20;;;21.40;73.10;;;;;;4957960;28;20043;-77
2021/06/04 06:59:07;;;;;;;8.55;2.70;;;21.50;73.20;;;;;;4971964;28;20055;-76
2021/06/04 07:01:33;;;;;;;8.95;2.60;;;21.50;73.20;;;;;;4957513;28;20039;-77
2021/06/04 07:04:00;;;;;;;6.57;2.53;;;21.50;73.60;;;;;;4955732;28;20520;-77
2021/06/04 07:06:29;;;;;;;10.30;2.72;;;21.60;72.70;;;;;;4956636;28;20058;-77
2021/06/04 07:08:55;;;;;;;4.55;2.33;;;21.60;73.10;;;;;;4956463;28;20134;-77
2021/06/04 07:11:23;;;;;;;6.45;2.60;;;21.70;72.50;;;;;;4956829;28;20047;-77
2021/06/04 07:13:51;;;;;;;11.23;2.67;;;21.70;72.60;;;;;;4956322;28;20050;-77
2021/06/04 07:16:18;;;;;;;8.32;2.30;;;21.80;72.20;;;;;;4957407;28;20118;-77
2021/06/04 07:18:43;;;;;;;6.63;2.45;;;21.80;72.20;;;;;;4957043;28;20038;-77
2021/06/04 07:21:13;;;;;;;8.38;2.72;;;21.90;73.00;;;;;;4955532;28;20039;-76
2021/06/04 07:23:39;;;;;;;10.50;2.47;;;22.00;72.80;;;;;;4955936;28;20047;-76
2021/06/04 07:26:05;;;;;;;3.97;3.13;;;22.00;72.30;;;;;;4972777;28;20155;-76
2021/06/04 07:28:33;;;;;;;7.43;2.78;;;22.00;73.30;;;;;;4955545;28;20093;-76
2021/06/04 07:31:02;;;;;;;6.95;3.20;;;22.10;72.40;;;;;;4955501;28;20043;-75
2021/06/04 07:33:34;;;;;;;5.22;2.92;;;22.10;72.70;;;;;;4955028;29;20043;-76
2021/06/04 07:36:03;;;;;;;6.93;2.47;;;22.20;73.00;;;;;;4972049;28;20039;-76
2021/06/04 07:38:28;;;;;;;17.50;4.57;;;22.20;72.50;;;;;;4972255;28;20035;-75
2021/06/04 07:40:56;;;;;;;17.85;13.32;;;22.20;71.50;;;;;;4971644;28;20184;-76
2021/06/04 07:43:28;;;;;;;6.07;4.68;;;22.30;71.30;;;;;;4955958;28;20326;-76
2021/06/04 07:45:53;;;;;;;8.02;3.20;;;22.40;71.70;;;;;;4954231;29;20039;-76
2021/06/04 07:48:20;;;;;;;9.00;2.95;;;22.40;71.80;;;;;;4948045;29;20050;-79
2021/06/04 07:50:48;;;;;;;5.15;2.50;;;22.50;70.30;;;;;;4955891;28;20253;-77
2021/06/04 07:53:16;;;;;;;4.15;2.20;;;22.60;70.70;;;;;;4957301;28;20054;-76
2021/06/04 07:55:42;;;;;;;3.15;1.95;;;22.60;69.80;;;;;;4956891;28;20039;-77
2021/06/04 07:58:08;;;;;;;4.20;2.72;;;22.60;70.30;;;;;;4957068;28;20043;-76
2021/06/04 08:00:35;;;;;;;5.60;2.30;;;22.70;70.30;;;;;;4956207;28;20043;-77
2021/06/04 08:03:03;;;;;;;8.45;2.75;;;22.70;70.70;;;;;;4971519;28;20226;-76
2021/06/04 08:05:31;;;;;;;4.75;2.35;;;22.80;71.30;;;;;;4957142;28;20319;-76
2021/06/04 08:07:57;;;;;;;3.95;2.13;;;22.90;69.80;;;;;;4958947;28;20075;-76
2021/06/04 08:10:23;;;;;;;3.70;2.13;;;22.90;69.30;;;;;;4955525;28;20047;-76
2021/06/04 08:12:48;;;;;;;5.38;2.72;;;23.00;69.60;;;;;;4955645;28;20039;-76
2021/06/04 08:15:27;;;;;;;4.53;2.08;;;23.10;70.30;;;;;;4956259;28;20039;-76
2021/06/04 08:17:52;;;;;;;4.68;2.15;;;23.10;69.20;;;;;;4956244;28;20505;-77
2021/06/04 08:20:23;;;;;;;8.10;2.13;;;23.20;70.20;;;;;;4955659;28;20087;-77
2021/06/04 08:22:51;;;;;;;4.22;2.25;;;23.20;69.30;;;;;;4955309;29;20031;-77
2021/06/04 08:25:19;;;;;;;5.70;2.20;;;23.30;69.70;;;;;;4956202;28;20105;-77
2021/06/04 08:27:45;;;;;;;7.10;2.20;;;23.40;70.30;;;;;;4954192;28;20042;-76
2021/06/04 08:30:12;;;;;;;4.63;2.55;;;23.40;69.10;;;;;;4955503;28;20047;-76
2021/06/04 08:32:38;;;;;;;6.50;2.33;;;23.50;70.10;;;;;;4954638;29;20378;-76
2021/06/04 08:35:07;;;;;;;4.65;2.22;;;23.60;69.50;;;;;;4955215;28;20363;-76
2021/06/04 08:37:33;;;;;;;6.25;2.03;;;23.80;67.90;;;;;;4955366;28;20186;-76
2021/06/04 08:39:58;;;;;;;6.28;2.45;;;23.90;68.40;;;;;;4955063;28;20586;-76
2021/06/04 08:42:57;;;;;;;6.43;2.35;;;24.00;66.60;;;;;;4956016;29;20147;-76
2021/06/04 08:45:39;;;;;;;5.30;1.98;;;24.20;67.70;;;;;;4902618;29;20047;-76
2021/06/04 08:48:32;;;;;;;2.75;1.85;;;24.30;66.30;;;;;;4951272;29;20046;-75
2021/06/04 08:51:20;;;;;;;4.10;2.17;;;24.50;65.20;;;;;;4929278;28;20371;-79
2021/06/04 08:54:29;;;;;;;8.60;2.20;;;24.70;65.50;;;;;;4954190;29;20043;-77
2021/06/04 08:57:31;;;;;;;2.97;1.83;;;24.90;68.60;;;;;;4955072;29;20063;-77
2021/06/04 08:59:58;;;;;;;6.18;1.67;;;25.10;68.10;;;;;;4956158;28;20485;-76
2021/06/04 09:02:41;;;;;;;5.18;2.35;;;25.30;64.40;;;;;;4954786;29;20455;-76
2021/06/04 09:05:14;;;;;;;3.13;2.03;;;25.50;63.60;;;;;;4948724;28;20578;-76
2021/06/04 09:07:45;;;;;;;7.75;2.28;;;25.60;63.80;;;;;;4969661;28;20047;-76
2021/06/04 09:10:22;;;;;;;4.68;2.03;;;25.80;62.80;;;;;;4955314;28;20038;-75
2021/06/04 09:12:55;;;;;;;11.50;2.47;;;25.90;61.60;;;;;;4953852;29;20472;-76
2021/06/04 09:15:28;;;;;;;5.43;2.70;;;26.00;63.60;;;;;;4956201;28;20138;-77
2021/06/04 09:18:00;;;;;;;4.95;3.03;;;26.00;63.80;;;;;;4957764;28;20047;-77
2021/06/04 09:20:49;;;;;;;2.95;1.95;;;26.00;62.60;;;;;;4957926;28;20038;-77
2021/06/04 09:23:19;;;;;;;2.95;1.92;;;26.10;62.30;;;;;;4954611;28;20122;-76
2021/06/04 09:25:45;;;;;;;2.95;2.13;;;26.10;64.10;;;;;;4956327;28;20066;-77
2021/06/04 09:28:10;;;;;;;2.50;2.20;;;26.20;63.80;;;;;;4954885;28;20063;-77
2021/06/04 09:30:47;;;;;;;7.57;2.60;;;26.20;62.60;;;;;;4953987;29;20129;-77
2021/06/04 09:33:19;;;;;;;2.53;1.80;;;26.10;61.80;;;;;;4952049;29;20071;-77
2021/06/04 09:36:01;;;;;;;;;;;26.20;63.10;;;;;;4953691;28;20118;-77
2021/06/04 09:38:32;;;;;;;2.75;1.90;;;26.20;63.10;;;;;;4955317;28;19930;-78
2021/06/04 09:41:16;;;;;;;2.23;1.83;;;26.30;62.90;;;;;;4953823;29;20111;-78
2021/06/04 09:43:43;;;;;;;8.93;2.70;;;26.30;62.70;;;;;;4954339;29;20121;-77
2021/06/04 09:46:11;;;;;;;8.23;2.25;;;26.40;63.60;;;;;;4954816;28;20031;-76
2021/06/04 09:48:48;;;;;;;3.38;2.42;;;26.50;62.30;;;;;;4955574;28;20066;-77
2021/06/04 09:51:43;;;;;;;5.07;2.42;;;26.60;62.70;;;;;;4954989;28;20557;-76
2021/06/04 09:54:29;;;;;;;3.20;2.20;;;26.70;63.50;;;;;;4952882;29;20035;-78
2021/06/04 09:57:26;;;;;;;3.78;2.15;;;26.80;63.50;;;;;;4954799;29;20039;-78
2021/06/04 09:59:52;;;;;;;3.17;2.28;;;27.00;62.30;;;;;;4970811;28;20402;-77
2021/06/04 10:02:31;;;;;;;4.45;2.50;;;27.10;62.50;;;;;;4953513;28;20039;-78
2021/06/04 10:05:15;;;;;;;6.68;2.28;;;27.10;66.00;;;;;;4954832;29;20043;-77
2021/06/04 10:07:41;;;;;;;8.23;2.70;;;27.20;64.60;;;;;;4955616;28;20039;-78
2021/06/04 10:10:14;;;;;;;3.75;2.72;;;27.30;63.10;;;;;;4954054;29;20070;-78
2021/06/04 10:12:46;;;;;;;2.65;1.90;;;27.30;62.50;;;;;;4969129;28;20317;-77
2021/06/04 10:15:27;;;;;;;3.65;2.05;;;27.40;63.40;;;;;;4953611;28;20528;-78
2021/06/04 10:20:31;;;;;;;4.22;2.20;;;27.60;63.80;;;;;;4956705;29;20065;-78
2021/06/04 10:23:06;;;;;;;3.75;1.85;;;27.90;63.80;;;;;;4956828;29;20410;-78
2021/06/04 10:25:40;;;;;;;4.38;2.17;;;28.00;61.90;;;;;;4954127;29;20035;-78
2021/06/04 10:28:24;;;;;;;2.67;2.15;;;28.20;62.60;;;;;;4957062;28;20043;-77
2021/06/04 10:30:50;;;;;;;3.78;2.50;;;28.30;62.40;;;;;;4973396;28;20043;-77
2021/06/04 10:33:31;;;;;;;3.70;2.03;;;28.20;59.50;;;;;;4957607;29;20061;-76
2021/06/04 10:36:03;;;;;;;7.07;2.20;;;28.20;60.90;;;;;;4956895;29;20054;-77
2021/06/04 10:38:50;;;;;;;4.90;2.65;;;28.10;60.40;;;;;;4956742;28;20047;-76
2021/06/04 10:41:39;;;;;;;3.97;2.33;;;28.20;61.20;;;;;;4952916;29;20047;-78
2021/06/04 10:44:16;;;;;;;5.75;2.20;;;28.20;61.60;;;;;;4950833;29;20411;-76
2021/06/04 10:47:02;;;;;;;3.50;2.33;;;28.30;62.40;;;;;;4971382;28;20125;-77
2021/06/04 10:50:01;;;;;;;5.95;2.10;;;28.30;60.40;;;;;;4956924;29;20039;-76
2021/06/04 10:52:42;;;;;;;6.20;2.50;;;28.30;61.60;;;;;;4956012;29;20074;-76
2021/06/04 10:55:22;;;;;;;6.40;1.73;;;28.20;60.70;;;;;;4956460;29;20084;-77
2021/06/04 10:58:07;;;;;;;3.25;2.00;;;28.20;61.30;;;;;;4958144;28;20068;-78
2021/06/04 11:00:49;;;;;;;2.95;2.00;;;28.10;61.80;;;;;;4956532;29;20063;-78
2021/06/04 11:03:21;;;;;;;;;;;28.10;64.10;;;;;;4957400;28;20280;-77
2021/06/04 11:06:12;;;;;;;3.28;2.22;;;28.10;62.80;;;;;;4953924;29;19928;-77
2021/06/04 11:08:47;;;;;;;3.50;2.38;;;28.20;63.20;;;;;;4956815;28;20050;-76
2021/06/04 11:11:27;;;;;;;2.88;2.20;;;28.30;66.50;;;;;;4956180;28;20035;-77
2021/06/04 11:14:11;;;;;;;3.65;2.00;;;28.30;63.50;;;;;;4955328;29;20306;-77
2021/06/04 11:16:42;;;;;;;4.97;2.70;;;28.40;62.90;;;;;;4958667;28;20427;-77
2021/06/04 11:19:16;;;;;;;2.42;2.17;;;28.50;60.50;;;;;;4956870;28;20043;-77
2021/06/04 11:21:51;;;;;;;3.28;2.25;;;28.60;63.30;;;;;;4956364;29;20035;-77
2021/06/04 11:24:47;;;;;;;4.45;2.30;;;28.70;61.20;;;;;;4952757;29;20147;-77
2021/06/04 11:27:35;;;;;;;3.63;2.40;;;28.80;63.80;;;;;;4955357;29;20037;-76
2021/06/04 11:30:02;;;;;;;3.03;2.35;;;28.80;62.90;;;;;;4953933;28;20122;-78
2021/06/04 11:32:49;;;;;;;8.27;2.15;;;28.70;63.10;;;;;;4956617;28;20113;-77
2021/06/04 11:35:25;;;;;;;5.72;2.67;;;28.60;62.70;;;;;;4951683;29;20466;-78
2021/06/04 11:38:17;;;;;;;7.95;2.78;;;28.60;64.20;;;;;;4972159;28;20303;-78
2021/06/04 11:40:46;;;;;;;4.45;2.47;;;28.50;63.40;;;;;;4944050;29;20058;-78
2021/06/04 11:43:14;;;;;;;2.78;2.30;;;28.50;63.10;;;;;;4953242;29;20403;-78
2021/06/04 11:45:44;;;;;;;3.33;2.50;;;28.50;63.90;;;;;;4954217;29;20082;-78
2021/06/04 11:48:28;;;;;;;5.07;2.60;;;28.60;64.40;;;;;;4971036;28;20039;-78
2021/06/04 11:51:18;;;;;;;4.15;2.25;;;28.60;63.10;;;;;;4954498;28;20047;-78
2021/06/04 11:53:49;;;;;;;2.95;2.22;;;28.60;62.70;;;;;;4955902;29;20035;-78
2021/06/04 11:56:42;;;;;;;4.90;1.95;;;28.70;63.00;;;;;;4955540;28;20051;-79
2021/06/04 11:59:13;;;;;;;6.30;1.95;;;28.70;63.90;;;;;;4953838;29;20079;-77
2021/06/04 12:01:47;;;;;;;2.97;2.53;;;28.80;62.70;;;;;;4954235;29;20082;-77
2021/06/04 12:04:19;;;;;;;2.85;1.95;;;28.80;65.10;;;;;;4967144;28;20122;-78
2021/06/04 12:07:00;;;;;;;3.40;2.17;;;28.80;62.50;;;;;;4952070;29;20050;-77
2021/06/04 12:09:32;;;;;;;2.17;1.85;;;28.80;66.90;;;;;;4953867;29;20057;-77
2021/06/04 12:12:16;;;;;;;10.43;2.30;;;28.70;63.50;;;;;;4955502;29;20410;-77
2021/06/04 12:14:57;;;;;;;2.13;1.90;;;28.80;64.30;;;;;;4954990;28;20047;-78
2021/06/04 12:17:38;;;;;;;2.42;2.10;;;28.90;63.50;;;;;;4954967;29;20066;-77
2021/06/04 12:20:27;;;;;;;8.40;1.92;;;29.10;64.20;;;;;;4955787;29;20139;-78
2021/06/04 12:23:04;;;;;;;3.25;2.17;;;29.30;64.00;;;;;;4952548;29;20073;-78
2021/06/04 12:25:41;;;;;;;5.03;2.17;;;29.40;64.00;;;;;;4956026;28;20050;-78
2021/06/04 12:28:10;;;;;;;2.40;1.67;;;29.60;64.40;;;;;;4955230;28;20039;-78
2021/06/04 12:30:48;;;;;;;2.83;1.45;;;29.60;61.40;;;;;;4952117;28;20047;-78
2021/06/04 12:33:41;;;;;;;5.93;2.00;;;29.70;60.30;;;;;;4955842;28;20322;-77
2021/06/04 12:36:40;;;;;;;2.60;1.90;;;29.90;60.50;;;;;;4950436;29;20474;-78
2021/06/04 12:39:21;;;;;;;5.93;2.20;;;29.90;61.70;;;;;;4951758;29;20066;-77
2021/06/04 12:42:09;;;;;;;2.07;1.87;;;29.90;60.30;;;;;;4955161;28;20439;-78
2021/06/04 12:44:36;;;;;;;6.80;2.45;;;30.10;61.10;;;;;;4951424;28;20055;-78
2021/06/04 12:47:12;;;;;;;2.22;1.85;;;30.20;59.80;;;;;;4947013;29;20402;-78
2021/06/04 12:49:38;;;;;;;2.75;1.60;;;30.30;59.70;;;;;;4953892;28;20074;-77
2021/06/04 12:52:13;;;;;;;3.35;1.45;;;30.40;62.70;;;;;;4953236;29;20437;-77
2021/06/04 12:54:38;;;;;;;2.17;1.30;;;30.40;58.10;;;;;;4953368;29;20050;-78
2021/06/04 12:57:04;;;;;;;3.33;1.33;;;30.40;58.70;;;;;;4954721;28;20704;-79
2021/06/04 12:59:31;;;;;;;2.60;1.23;;;30.40;58.40;;;;;;4954143;28;20105;-77
2021/06/04 13:02:06;;;;;;;3.78;1.38;;;30.20;59.90;;;;;;4953679;29;20035;-77
2021/06/04 13:04:39;;;;;;;1.67;1.52;;;30.20;60.70;;;;;;4958683;28;20043;-77
2021/06/04 13:07:16;;;;;;;3.42;1.65;;;30.40;60.00;;;;;;4959814;28;20107;-79
2021/06/04 13:09:44;;;;;;;2.60;1.92;;;30.50;63.10;;;;;;4972660;28;20071;-77
2021/06/04 13:12:18;;;;;;;3.05;1.30;;;30.70;60.60;;;;;;4955094;28;20047;-77
2021/06/04 13:14:46;;;;;;;6.32;1.73;;;30.90;59.60;;;;;;4955358;28;20039;-78
2021/06/04 13:17:20;;;;;;;2.95;1.80;;;30.90;61.60;;;;;;4956117;28;20047;-77
2021/06/04 13:19:46;;;;;;;3.17;1.60;;;31.00;58.30;;;;;;4952278;29;20118;-78